Time;durP1;ratioP1;P1;durP2;ratioP2;P2;SDS_P1;SDS_P2;PMS_P1;PMS_P2;Temp;Humidity;BMP_temperature;BMP_pressure;BME280_temperature;BME280_humidity;BME280_pressure;Samples;Min_cycle;Max_cycle;Signal;HPM_P1;HPM_P2
2021/05/16 00:00:32;;;;;;;;;;;;;;;10.35;70.70;98823.72;2212847;40;19933;-78
2021/05/16 00:02:03;;;;;;;;;;;;;;;10.38;70.68;98822.56;2213556;40;19953;-78
2021/05/16 00:03:34;;;;;;;;;;;;;;;10.34;70.55;98830.06;2214201;40;19949;-79
2021/05/16 00:05:27;;;;;;;;;;;;;;;10.30;70.56;98831.41;2213558;40;19948;-80
2021/05/16 00:06:59;;;;;;;;;;;;;;;10.29;70.63;98835.09;2211009;40;19950;-79
2021/05/16 00:08:30;;;;;;;;;;;;;;;10.30;70.72;98831.41;2210817;40;20217;-79
2021/05/16 00:10:03;;;;;;;;;;;;;;;10.29;70.59;98835.09;2215349;40;19949;-78
2021/05/16 00:11:34;;;;;;;;;;;;;;;10.26;70.66;98840.78;2217201;40;19941;-77
2021/05/16 00:13:05;;;;;;;;;;;;;;;10.26;70.69;98838.09;2218941;40;19945;-78
2021/05/16 00:14:38;;;;;;;;;;;;;;;10.26;70.66;98833.59;2214638;40;19930;-78
2021/05/16 00:16:17;;;;;;;;;;;;;;;10.26;70.77;98838.09;2217511;40;19937;-81
2021/05/16 00:17:49;;;;;;;;;;;;;;;10.25;70.78;98829.25;2220146;40;19940;-77
2021/05/16 00:25:46;;;;;;;;;;;;;;;10.34;70.69;98834.59;2180052;40;19947;-78
2021/05/16 00:27:17;;;;;;;;;;;;;;;10.36;70.72;98828.06;2205096;40;19945;-78
2021/05/16 00:28:49;;;;;;;;;;;;;;;10.36;70.71;98830.72;2211018;40;19992;-80
2021/05/16 00:30:21;;;;;;;;;;;;;;;10.37;70.66;98829.75;2216370;40;20015;-80
2021/05/16 00:31:53;;;;;;;;;;;;;;;10.42;70.64;98827.38;2214388;40;19941;-79
2021/05/16 00:33:24;;;;;;;;;;;;;;;10.40;70.50;98820.56;2214795;40;19950;-81
2021/05/16 00:35:09;;;;;;;;;;;;;;;10.42;70.44;98824.72;2213048;40;19949;-80
2021/05/16 00:36:45;;;;;;;;;;;;;;;10.46;70.48;98827.88;2203076;40;19964;-81
2021/05/16 00:38:18;;;;;;;;;;;;;;;10.48;70.32;98828.53;2209743;40;20023;-79
2021/05/16 00:39:49;;;;;;;;;;;;;;;10.50;70.12;98831.00;2213373;40;19996;-80
2021/05/16 00:41:41;;;;;;;;;;;;;;;10.54;70.05;98821.66;2211435;40;20217;-82
2021/05/16 00:43:13;;;;;;;;;;;;;;;10.61;69.74;98830.63;2214649;40;19972;-81
2021/05/16 00:45:00;;;;;;;;;;;;;;;10.62;69.62;98829.63;2187505;40;19955;-81
2021/05/16 00:46:37;;;;;;;;;;;;;;;10.61;69.33;98834.16;2219213;40;19941;-81
2021/05/16 00:48:10;;;;;;;;;;;;;;;10.70;69.19;98831.44;2183248;40;20001;-82
2021/05/16 00:49:40;;;;;;;;;;;;;;;10.79;68.83;98826.88;2214634;40;20036;-79
2021/05/16 00:51:12;;;;;;;;;;;;;;;10.81;68.41;98830.19;2218537;40;19949;-80
2021/05/16 00:52:57;;;;;;;;;;;;;;;10.81;68.35;98828.38;2221865;40;19933;-76
2021/05/16 00:59:29;;;;;;;;;;;;;;;10.86;67.98;98826.00;2191659;40;19934;-78
2021/05/16 01:01:10;;;;;;;;;;;;;;;10.91;67.78;98818.25;2155667;41;20022;-78
2021/05/16 01:02:58;;;;;;;;;;;;;;;10.91;67.70;98820.13;2178255;41;19946;-77
2021/05/16 01:04:30;;;;;;;;;;;;;;;10.88;67.64;98815.13;2172928;41;20003;-78
2021/05/16 01:06:10;;;;;;;;;;;;;;;10.85;67.72;98812.81;2166189;41;19944;-77
2021/05/16 01:07:44;;;;;;;;;;;;;;;10.88;67.74;98817.78;2169645;41;20035;-79
2021/05/16 01:09:15;;;;;;;;;;;;;;;10.91;67.68;98817.44;2155948;41;19948;-79
2021/05/16 01:10:49;;;;;;;;;;;;;;;10.93;67.52;98816.25;2161055;41;19952;-78
2021/05/16 01:12:32;;;;;;;;;;;;;;;10.96;67.49;98820.41;2162674;41;20391;-78
2021/05/16 01:14:06;;;;;;;;;;;;;;;10.97;67.58;98816.72;2156227;41;19940;-78
2021/05/16 01:15:38;;;;;;;;;;;;;;;10.99;67.50;98822.72;2161000;41;19993;-78
2021/05/16 01:20:42;;;;;;;;;;;;;;;10.91;67.68;98814.75;2241869;39;20318;-80
2021/05/16 01:22:13;;;;;;;;;;;;;;;10.84;68.15;98813.81;2232471;40;19956;-79
2021/05/16 01:23:48;;;;;;;;;;;;;;;10.82;68.27;98818.50;2224930;39;20309;-79
2021/05/16 01:25:19;;;;;;;;;;;;;;;10.79;68.38;98814.34;2235927;39;19944;-80
2021/05/16 01:37:25;;;;;;;;;;;;;;;10.80;68.58;98815.16;2242112;39;19936;-79
2021/05/16 01:39:00;;;;;;;;;;;;;;;10.84;68.50;98806.63;2241420;39;19938;-79
2021/05/16 01:40:31;;;;;;;;;;;;;;;10.87;68.40;98810.78;2253913;39;19940;-81
2021/05/16 01:42:04;;;;;;;;;;;;;;;10.85;68.31;98804.78;2245203;39;19926;-79
2021/05/16 01:43:46;;;;;;;;;;;;;;;10.84;68.25;98801.28;2254309;39;19937;-81
2021/05/16 01:45:18;;;;;;;;;;;;;;;10.83;68.32;98809.47;2248113;39;19946;-78
2021/05/16 01:46:54;;;;;;;;;;;;;;;10.84;68.03;98808.47;2247631;39;19963;-80
2021/05/16 01:48:28;;;;;;;;;;;;;;;10.88;68.20;98812.44;2237180;39;20073;-80
2021/05/16 01:50:13;;;;;;;;;;;;;;;10.87;68.19;98810.78;2246178;39;19940;-79
2021/05/16 01:51:47;;;;;;;;;;;;;;;10.87;68.36;98805.41;2245348;39;19983;-79
2021/05/16 01:53:20;;;;;;;;;;;;;;;10.88;68.22;98804.41;2245740;39;20256;-80
2021/05/16 01:54:53;;;;;;;;;;;;;;;10.74;68.51;98806.00;2248357;39;20114;-79
2021/05/16 01:56:27;;;;;;;;;;;;;;;10.73;68.68;98810.53;2246447;39;19940;-79
2021/05/16 01:58:02;;;;;;;;;;;;;;;10.69;68.91;98814.56;2248468;39;19936;-80
2021/05/16 01:59:34;;;;;;;;;;;;;;;10.64;68.94;98814.25;2245268;39;19976;-79
2021/05/16 02:01:06;;;;;;;;;;;;;;;10.64;69.05;98813.41;2248196;39;19951;-79
2021/05/16 02:02:36;;;;;;;;;;;;;;;10.65;69.21;98815.09;2246149;39;20367;-78
2021/05/16 02:04:10;;;;;;;;;;;;;;;10.66;69.17;98804.22;2248474;39;19948;-79
2021/05/16 02:05:40;;;;;;;;;;;;;;;10.66;69.38;98812.25;2246026;39;19951;-79
2021/05/16 02:07:12;;;;;;;;;;;;;;;10.64;69.35;98808.06;2248756;39;19948;-79
2021/05/16 02:08:45;;;;;;;;;;;;;;;10.64;69.60;98811.59;2206834;39;19942;-79
2021/05/16 02:10:19;;;;;;;;;;;;;;;10.60;69.64;98813.78;2239165;39;20335;-80
2021/05/16 02:11:53;;;;;;;;;;;;;;;10.57;69.82;98813.31;2238911;39;19940;-80
2021/05/16 02:13:31;;;;;;;;;;;;;;;10.58;69.77;98809.63;2247386;39;19944;-79
2021/05/16 02:15:11;;;;;;;;;;;;;;;10.59;69.83;98808.59;2246696;39;19928;-80
2021/05/16 02:16:59;;;;;;;;;;;;;;;10.63;69.79;98804.56;2248996;39;19932;-80
2021/05/16 02:18:30;;;;;;;;;;;;;;;10.63;69.85;98803.75;2245567;39;19935;-78
2021/05/16 02:20:01;;;;;;;;;;;;;;;10.62;69.92;98792.22;2249728;39;19932;-76
2021/05/16 02:21:32;;;;;;;;;;;;;;;10.63;70.00;98801.91;2250726;39;19951;-78
2021/05/16 02:23:03;;;;;;;;;;;;;;;10.66;69.89;98808.72;2248531;39;19939;-78
2021/05/16 02:24:34;;;;;;;;;;;;;;;10.67;69.87;98807.72;2247856;39;19940;-80
2021/05/16 02:26:05;;;;;;;;;;;;;;;10.67;69.86;98797.88;2252360;39;19947;-80
2021/05/16 02:27:36;;;;;;;;;;;;;;;10.65;69.98;98802.56;2253673;39;19994;-79
2021/05/16 02:29:08;;;;;;;;;;;;;;;10.67;69.99;98797.88;2249151;39;20024;-79
2021/05/16 02:30:39;;;;;;;;;;;;;;;10.68;69.94;98793.34;2247796;39;20489;-77
2021/05/16 02:32:09;;;;;;;;;;;;;;;10.72;70.00;98795.50;2246072;39;19947;-76
2021/05/16 02:33:40;;;;;;;;;;;;;;;10.82;69.84;98797.94;2251173;39;19943;-80
2021/05/16 02:35:13;;;;;;;;;;;;;;;10.87;69.76;98800.94;2245438;39;19951;-78
2021/05/16 02:36:45;;;;;;;;;;;;;;;10.88;69.78;98799.06;2250495;39;20048;-80
2021/05/16 02:38:16;;;;;;;;;;;;;;;10.86;69.96;98811.81;2232359;39;19944;-79
2021/05/16 02:39:47;;;;;;;;;;;;;;;10.81;70.13;98806.13;2242731;39;19955;-79
2021/05/16 02:41:18;;;;;;;;;;;;;;;10.83;70.25;98804.13;2224202;39;19952;-79
2021/05/16 02:42:50;;;;;;;;;;;;;;;10.82;70.34;98797.94;2236977;39;19968;-78
2021/05/16 02:44:20;;;;;;;;;;;;;;;10.79;70.36;98803.66;2247246;39;20011;-78
2021/05/16 02:45:52;;;;;;;;;;;;;;;10.74;70.56;98798.84;2248347;39;19948;-78
2021/05/16 02:47:22;;;;;;;;;;;;;;;10.71;70.78;98801.84;2245873;39;19940;-77
2021/05/16 02:48:53;;;;;;;;;;;;;;;10.67;70.96;98805.91;2247686;39;20469;-79
2021/05/16 02:50:24;;;;;;;;;;;;;;;10.65;71.06;98799.91;2242890;39;19940;-79
2021/05/16 02:51:55;;;;;;;;;;;;;;;10.65;71.26;98794.53;2246189;39;19936;-78
2021/05/16 02:53:26;;;;;;;;;;;;;;;10.68;71.47;98801.38;2233535;40;19948;-79
2021/05/16 02:54:58;;;;;;;;;;;;;;;10.66;71.57;98806.91;2248153;39;19955;-78
2021/05/16 02:56:29;;;;;;;;;;;;;;;10.66;71.61;98804.22;2235522;40;19951;-80
2021/05/16 02:58:06;;;;;;;;;;;;;;;10.65;71.83;98801.72;2245490;39;20373;-81
2021/05/16 02:59:37;;;;;;;;;;;;;;;10.61;71.89;98806.59;2210031;39;19958;-81
2021/05/16 03:01:10;;;;;;;;;;;;;;;10.61;72.09;98806.59;2226963;40;19940;-81
2021/05/16 03:04:46;;;;;;;;;;;;;;;10.53;72.60;98799.44;2240018;39;19943;-80
2021/05/16 03:06:18;;;;;;;;;;;;;;;10.52;72.93;98812.97;2225904;40;19985;-81
2021/05/16 03:07:57;;;;;;;;;;;;;;;10.53;73.14;98811.97;2241461;39;19946;-81
2021/05/16 03:11:24;;;;;;;;;;;;;;;10.37;74.46;98819.06;2208668;39;19947;-81
2021/05/16 03:12:57;;;;;;;;;;;;;;;10.33;74.56;98808.88;2221133;40;19944;-82
2021/05/16 03:14:32;;;;;;;;;;;;;;;10.32;74.83;98813.38;2240110;39;19948;-82
2021/05/16 03:18:19;;;;;;;;;;;;;;;10.25;75.45;98812.41;2217735;40;19938;-82
2021/05/16 03:22:25;;;;;;;;;;;;;;;10.23;75.89;98803.72;2232022;39;19920;-79
2021/05/16 03:24:01;;;;;;;;;;;;;;;10.26;75.91;98796.19;2214855;40;19934;-78
2021/05/16 03:25:34;;;;;;;;;;;;;;;10.27;76.06;98799.72;2211288;40;19989;-79
2021/05/16 03:27:23;;;;;;;;;;;;;;;10.25;76.46;98794.53;2209070;40;20542;-78
2021/05/16 03:30:53;;;;;;;;;;;;;;;10.28;76.69;98796.84;2209311;40;20003;-78
2021/05/16 03:32:26;;;;;;;;;;;;;;;10.31;76.56;98790.31;2202331;40;20556;-80
2021/05/16 03:33:57;;;;;;;;;;;;;;;10.25;76.86;98791.84;2209537;40;19956;-80
2021/05/16 03:35:59;;;;;;;;;;;;;;;10.25;76.91;98791.03;2231252;39;19943;-79
2021/05/16 03:37:31;;;;;;;;;;;;;;;10.26;77.07;98798.84;2233288;40;19937;-80
2021/05/16 03:39:10;;;;;;;;;;;;;;;10.26;77.16;98793.53;2212769;40;19948;-79
2021/05/16 03:40:41;;;;;;;;;;;;;;;10.25;77.36;98799.88;2213879;40;19948;-80
2021/05/16 03:42:12;;;;;;;;;;;;;;;10.19;77.64;98792.56;2229697;39;19943;-81
2021/05/16 03:43:50;;;;;;;;;;;;;;;10.18;77.62;98798.91;2221295;40;19937;-80
2021/05/16 03:45:28;;;;;;;;;;;;;;;10.18;77.84;98806.09;2222473;40;19937;-79
2021/05/16 03:47:00;;;;;;;;;;;;;;;10.14;77.96;98805.59;2232793;39;19940;-79
2021/05/16 03:48:33;;;;;;;;;;;;;;;10.13;77.96;98796.75;2226594;40;19953;-79
2021/05/16 03:50:04;;;;;;;;;;;;;;;10.13;78.06;98798.59;2230214;40;19955;-79
2021/05/16 03:51:41;;;;;;;;;;;;;;;10.15;78.23;98797.41;2209442;40;20091;-79
2021/05/16 03:53:13;;;;;;;;;;;;;;;10.18;78.19;98806.09;2214129;40;19933;-79
2021/05/16 03:54:44;;;;;;;;;;;;;;;10.20;78.15;98799.56;2174418;40;19956;-79
2021/05/16 03:56:16;;;;;;;;;;;;;;;10.18;78.17;98798.06;2222735;39;19932;-81
2021/05/16 03:57:49;;;;;;;;;;;;;;;10.15;78.44;98796.59;2234087;39;19944;-79
2021/05/16 03:59:21;;;;;;;;;;;;;;;10.19;78.36;98797.06;2224904;39;19937;-80
2021/05/16 04:00:52;;;;;;;;;;;;;;;10.21;78.38;98793.22;2240215;39;19943;-79
2021/05/16 04:02:23;;;;;;;;;;;;;;;10.21;78.34;98803.06;2237350;39;19933;-79
2021/05/16 04:03:54;;;;;;;;;;;;;;;10.23;78.36;98798.38;2239988;39;19943;-79
2021/05/16 04:05:25;;;;;;;;;;;;;;;10.25;78.39;98799.03;2238797;39;19936;-81
2021/05/16 04:06:55;;;;;;;;;;;;;;;10.27;78.41;98799.72;2240395;39;19940;-79
2021/05/16 04:08:27;;;;;;;;;;;;;;;10.26;78.35;98792.69;2227642;40;19941;-80
2021/05/16 04:10:02;;;;;;;;;;;;;;;10.27;78.33;98795.19;2239720;40;19943;-81
2021/05/16 04:11:40;;;;;;;;;;;;;;;10.32;78.29;98796.53;2233872;39;19947;-82
2021/05/16 04:13:11;;;;;;;;;;;;;;;10.33;78.18;98801.69;2234742;40;19955;-81
2021/05/16 04:17:06;;;;;;;;;;;;;;;10.26;78.36;98800.72;2235188;40;19956;-82
2021/05/16 04:18:50;;;;;;;;;;;;;;;10.26;78.26;98798.03;2233417;39;19940;-82
2021/05/16 04:23:02;;;;;;;;;;;;;;;10.30;78.12;98799.34;2226013;39;19941;-83
2021/05/16 04:24:33;;;;;;;;;;;;;;;10.32;78.13;98800.00;2238860;39;19943;-80
2021/05/16 04:26:06;;;;;;;;;;;;;;;10.29;78.19;98803.88;2241148;39;19939;-81
2021/05/16 04:27:37;;;;;;;;;;;;;;;10.28;78.22;98799.53;2238708;39;19975;-81
2021/05/16 04:29:10;;;;;;;;;;;;;;;10.31;78.26;98806.34;2239270;40;19964;-80
2021/05/16 04:30:43;;;;;;;;;;;;;;;10.35;78.11;98802.34;2234901;39;19936;-80
2021/05/16 04:32:14;;;;;;;;;;;;;;;10.34;78.06;98800.69;2233853;39;19959;-79
2021/05/16 04:33:46;;;;;;;;;;;;;;;10.35;78.04;98797.00;2236052;40;19937;-78
2021/05/16 04:35:18;;;;;;;;;;;;;;;10.36;78.02;98798.66;2234084;39;19943;-79
2021/05/16 04:36:54;;;;;;;;;;;;;;;10.39;77.96;98795.66;2235404;40;19972;-80
2021/05/16 04:38:26;;;;;;;;;;;;;;;10.40;77.90;98794.66;2235295;39;19948;-81
2021/05/16 04:39:58;;;;;;;;;;;;;;;10.44;77.80;98789.78;2240322;40;19939;-80
2021/05/16 04:41:35;;;;;;;;;;;;;;;10.51;77.75;98795.28;2236911;39;19937;-80
2021/05/16 04:43:07;;;;;;;;;;;;;;;10.54;77.64;98795.75;2238992;40;19944;-81
2021/05/16 04:44:39;;;;;;;;;;;;;;;10.52;77.67;98795.13;2236265;39;19932;-79
2021/05/16 04:46:25;;;;;;;;;;;;;;;10.51;77.72;98797.94;2238385;40;19955;-80
2021/05/16 04:48:05;;;;;;;;;;;;;;;10.49;77.75;98802.63;2236606;39;19952;-82
2021/05/16 04:50:08;;;;;;;;;;;;;;;10.45;77.76;98797.66;2239204;39;20255;-83
2021/05/16 04:51:54;;;;;;;;;;;;;;;10.44;77.76;98804.00;2238827;39;19940;-82
2021/05/16 04:53:29;;;;;;;;;;;;;;;10.44;77.95;98798.66;2236284;40;19948;-82
2021/05/16 04:55:06;;;;;;;;;;;;;;;10.47;77.93;98804.66;2238440;40;20494;-82
2021/05/16 04:56:40;;;;;;;;;;;;;;;10.48;77.97;98809.00;2236397;40;20319;-81
2021/05/16 04:58:11;;;;;;;;;;;;;;;10.53;77.95;98798.63;2238505;40;19936;-81
2021/05/16 04:59:46;;;;;;;;;;;;;;;10.52;77.90;98803.13;2237127;39;19964;-81
2021/05/16 05:03:40;;;;;;;;;;;;;;;10.66;77.65;98795.38;2182500;40;19941;-81
2021/05/16 05:05:13;;;;;;;;;;;;;;;10.69;77.63;98795.03;2219994;40;19957;-81
2021/05/16 05:29:07;;;;;;;;;;;;;;;10.69;77.65;98806.53;2151172;41;19996;-81
2021/05/16 05:35:20;;;;;;;;;;;;;;;10.79;77.61;98802.81;2207740;40;19946;-82
2021/05/16 06:00:57;;;;;;;;;;;;;;;11.68;73.11;98808.47;2238513;39;20420;-82
2021/05/16 06:02:29;;;;;;;;;;;;;;;11.83;72.93;98815.69;2236455;40;19947;-82
2021/05/16 06:04:03;;;;;;;;;;;;;;;11.92;72.47;98809.22;2241417;39;19935;-83
2021/05/16 06:40:32;;;;;;;;;;;;;;;12.37;71.28;98813.78;2210414;40;19945;-82
2021/05/16 06:42:03;;;;;;;;;;;;;;;12.39;71.35;98817.09;2208324;40;20258;-82
2021/05/16 06:43:50;;;;;;;;;;;;;;;12.44;71.28;98815.50;2209254;40;19945;-82
2021/05/16 06:45:23;;;;;;;;;;;;;;;12.44;70.96;98817.38;2201111;40;19945;-82
2021/05/16 06:47:00;;;;;;;;;;;;;;;12.43;71.16;98816.53;2213996;40;19949;-82
2021/05/16 06:48:31;;;;;;;;;;;;;;;12.50;71.03;98819.28;2184801;40;19956;-78
2021/05/16 06:50:02;;;;;;;;;;;;;;;12.47;70.95;98825.03;2209972;40;19948;-79
2021/05/16 06:51:35;;;;;;;;;;;;;;;12.47;70.89;98825.03;2203431;40;20202;-79
2021/05/16 06:53:06;;;;;;;;;;;;;;;12.52;70.90;98824.47;2212371;40;19941;-78
2021/05/16 06:54:39;;;;;;;;;;;;;;;12.59;70.71;98820.84;2209311;40;19978;-79
2021/05/16 06:56:12;;;;;;;;;;;;;;;12.60;70.47;98827.06;2211025;40;20027;-80
2021/05/16 06:57:43;;;;;;;;;;;;;;;12.55;70.32;98827.63;2210050;40;20244;-79
2021/05/16 06:59:14;;;;;;;;;;;;;;;12.57;70.21;98830.09;2209541;40;19948;-78
2021/05/16 07:00:45;;;;;;;;;;;;;;;12.51;69.42;98831.69;2210957;40;19949;-79
2021/05/16 07:02:17;;;;;;;;;;;;;;;12.51;69.52;98831.69;2209717;40;19942;-79
2021/05/16 07:03:47;;;;;;;;;;;;;;;12.56;69.60;98829.28;2210671;40;19956;-80
2021/05/16 07:05:19;;;;;;;;;;;;;;;12.64;69.38;98822.97;2209397;40;19952;-78
2021/05/16 07:06:50;;;;;;;;;;;;;;;12.66;69.35;98833.53;2210886;40;19937;-78
2021/05/16 07:08:21;;;;;;;;;;;;;;;12.66;69.50;98831.66;2209459;40;19941;-79
2021/05/16 07:09:52;;;;;;;;;;;;;;;12.72;69.46;98828.22;2210981;40;19945;-79
2021/05/16 07:11:27;;;;;;;;;;;;;;;12.83;69.40;98820.72;2210020;40;19944;-78
2021/05/16 07:13:00;;;;;;;;;;;;;;;12.78;69.13;98829.31;2215093;40;19948;-80
2021/05/16 07:14:33;;;;;;;;;;;;;;;12.78;69.36;98822.13;2215184;40;21159;-79
2021/05/16 07:16:04;;;;;;;;;;;;;;;12.86;69.52;98823.03;2209535;40;20040;-80
2021/05/16 07:17:35;;;;;;;;;;;;;;;12.94;69.10;98826.41;2205967;40;19945;-79
2021/05/16 07:19:07;;;;;;;;;;;;;;;12.95;68.97;98821.88;2207058;40;20490;-79
2021/05/16 07:20:38;;;;;;;;;;;;;;;12.97;68.86;98821.69;2204386;40;19977;-79
2021/05/16 07:22:09;;;;;;;;;;;;;;;12.99;68.75;98814.28;2204292;40;20308;-79
2021/05/16 07:23:40;;;;;;;;;;;;;;;13.04;68.20;98823.41;2203151;40;19946;-79
2021/05/16 07:25:12;;;;;;;;;;;;;;;13.08;68.22;98821.19;2205605;40;19938;-78
2021/05/16 07:26:45;;;;;;;;;;;;;;;13.13;67.96;98816.06;2203017;40;19942;-78
2021/05/16 07:28:16;;;;;;;;;;;;;;;13.18;68.18;98827.06;2204686;40;20274;-79
2021/05/16 07:29:48;;;;;;;;;;;;;;;13.32;67.79;98819.16;2203327;40;19964;-79
2021/05/16 07:31:19;;;;;;;;;;;;;;;13.39;67.56;98814.69;2205094;40;20329;-79
2021/05/16 07:32:51;;;;;;;;;;;;;;;13.47;67.06;98822.59;2203139;40;19944;-79
2021/05/16 07:34:22;;;;;;;;;;;;;;;13.41;66.70;98823.41;2205501;40;19954;-79
2021/05/16 07:35:54;;;;;;;;;;;;;;;13.45;66.84;98821.97;2203087;40;19945;-79
2021/05/16 07:37:25;;;;;;;;;;;;;;;13.48;66.92;98815.38;2204334;40;19945;-79
2021/05/16 07:39:00;;;;;;;;;;;;;;;13.55;66.47;98825.16;2203065;40;19966;-79
2021/05/16 07:40:31;;;;;;;;;;;;;;;13.64;66.23;98811.59;2204741;40;19949;-80
2021/05/16 07:42:03;;;;;;;;;;;;;;;13.73;65.79;98815.78;2202689;40;19993;-78
2021/05/16 07:43:34;;;;;;;;;;;;;;;13.76;65.38;98809.19;2204661;40;19937;-79
2021/05/16 07:45:07;;;;;;;;;;;;;;;13.75;65.10;98812.88;2203155;40;19945;-80
2021/05/16 07:46:38;;;;;;;;;;;;;;;13.89;65.09;98809.28;2206220;40;19953;-79
2021/05/16 07:48:12;;;;;;;;;;;;;;;13.92;64.58;98810.75;2203376;40;20019;-79
2021/05/16 07:49:45;;;;;;;;;;;;;;;13.98;63.96;98799.22;2211932;40;20337;-80
2021/05/16 07:51:19;;;;;;;;;;;;;;;14.13;63.78;98799.94;2209691;40;19945;-79
2021/05/16 07:52:50;;;;;;;;;;;;;;;14.24;63.25;98803.91;2210499;40;19937;-79
2021/05/16 07:54:21;;;;;;;;;;;;;;;14.40;63.05;98796.56;2209134;40;19972;-78
2021/05/16 07:55:52;;;;;;;;;;;;;;;14.58;62.74;98799.53;2209633;40;19945;-79
2021/05/16 07:57:23;;;;;;;;;;;;;;;14.65;61.72;98796.81;2208810;40;19942;-78
2021/05/16 07:58:54;;;;;;;;;;;;;;;14.74;61.66;98795.66;2210296;40;19933;-79
2021/05/16 08:00:26;;;;;;;;;;;;;;;14.90;60.63;98790.94;2210251;40;20016;-80
2021/05/16 08:01:58;;;;;;;;;;;;;;;14.89;60.72;98802.75;2211809;40;19948;-80
2021/05/16 08:03:29;;;;;;;;;;;;;;;14.95;60.14;98786.63;2210188;40;19948;-79
2021/05/16 08:05:00;;;;;;;;;;;;;;;14.94;59.96;98794.88;2211814;40;20302;-79
2021/05/16 08:06:31;;;;;;;;;;;;;;;15.16;59.72;98779.38;2208637;40;19941;-79
2021/05/16 08:08:03;;;;;;;;;;;;;;;15.23;59.16;98782.94;2210859;40;19937;-79
2021/05/16 08:09:34;;;;;;;;;;;;;;;15.16;59.64;98789.31;2210316;40;19937;-80
2021/05/16 08:11:07;;;;;;;;;;;;;;;15.17;59.87;98783.72;2211740;40;19949;-80
2021/05/16 08:12:39;;;;;;;;;;;;;;;15.08;59.62;98783.13;2209626;40;19937;-79
2021/05/16 08:14:11;;;;;;;;;;;;;;;14.92;59.53;98787.00;2210882;40;20483;-80
2021/05/16 08:15:42;;;;;;;;;;;;;;;14.79;60.37;98787.81;2209503;40;19937;-79
2021/05/16 08:17:14;;;;;;;;;;;;;;;14.70;60.84;98786.34;2209881;40;19949;-80
2021/05/16 08:18:51;;;;;;;;;;;;;;;14.58;61.91;98795.97;2211285;40;20047;-79
2021/05/16 08:20:25;;;;;;;;;;;;;;;14.42;62.59;98802.53;2210527;40;19941;-80
2021/05/16 08:21:57;;;;;;;;;;;;;;;14.12;62.82;98800.13;2211950;40;19941;-80
2021/05/16 08:23:28;;;;;;;;;;;;;;;13.86;63.97;98802.47;2209646;40;19941;-79
2021/05/16 08:24:59;;;;;;;;;;;;;;;13.66;64.61;98804.97;2212337;40;19961;-79
2021/05/16 08:26:30;;;;;;;;;;;;;;;13.66;65.10;98806.84;2210342;40;21285;-79
2021/05/16 08:28:02;;;;;;;;;;;;;;;13.66;65.54;98804.16;2211222;40;19949;-79
2021/05/16 08:29:35;;;;;;;;;;;;;;;13.65;65.79;98814.06;2209325;40;19938;-79
2021/05/16 08:31:07;;;;;;;;;;;;;;;13.63;66.39;98810.75;2211399;40;19948;-79
2021/05/16 08:32:38;;;;;;;;;;;;;;;13.61;66.49;98807.44;2209582;40;20023;-80
2021/05/16 08:34:09;;;;;;;;;;;;;;;13.62;66.62;98802.88;2210789;40;19937;-79
2021/05/16 08:35:40;;;;;;;;;;;;;;;13.53;67.00;98808.41;2207594;40;19945;-79
2021/05/16 08:37:12;;;;;;;;;;;;;;;13.48;67.30;98818.91;2204206;40;19938;-78
2021/05/16 08:38:43;;;;;;;;;;;;;;;13.38;67.62;98811.13;2203591;40;19938;-79
2021/05/16 08:40:17;;;;;;;;;;;;;;;13.31;68.12;98806.75;2204568;40;19946;-79
2021/05/16 08:41:48;;;;;;;;;;;;;;;13.26;68.43;98807.34;2202839;40;19957;-79
2021/05/16 08:43:21;;;;;;;;;;;;;;;13.23;68.74;98803.16;2204981;40;19938;-79
2021/05/16 08:44:52;;;;;;;;;;;;;;;13.25;68.75;98801.13;2203349;40;19966;-80
2021/05/16 08:46:24;;;;;;;;;;;;;;;13.33;68.51;98799.31;2205047;40;20307;-79
2021/05/16 08:47:56;;;;;;;;;;;;;;;13.47;68.41;98806.50;2203333;40;19944;-79
2021/05/16 08:49:28;;;;;;;;;;;;;;;13.59;68.14;98800.59;2205394;40;19949;-81
2021/05/16 08:51:00;;;;;;;;;;;;;;;13.75;67.89;98792.25;2168336;40;19943;-81
2021/05/16 08:52:31;;;;;;;;;;;;;;;14.03;67.49;98794.09;2194077;40;20466;-80
2021/05/16 08:54:04;;;;;;;;;;;;;;;14.25;66.77;98791.31;2203844;40;19937;-80
2021/05/16 08:55:36;;;;;;;;;;;;;;;14.47;65.71;98784.78;2205317;40;19946;-79
2021/05/16 08:57:10;;;;;;;;;;;;;;;14.46;64.74;98793.88;2199425;40;19938;-80
2021/05/16 08:58:42;;;;;;;;;;;;;;;14.41;65.18;98787.44;2205612;40;19930;-79
2021/05/16 09:00:17;;;;;;;;;;;;;;;14.38;64.40;98780.59;2201953;40;19938;-79
2021/05/16 09:01:49;;;;;;;;;;;;;;;14.34;64.05;98790.94;2205353;40;19934;-80
2021/05/16 09:03:20;;;;;;;;;;;;;;;14.33;64.28;98788.44;2189078;40;19942;-79
2021/05/16 09:04:55;;;;;;;;;;;;;;;14.27;64.17;98790.06;2203228;40;20302;-80
2021/05/16 09:06:32;;;;;;;;;;;;;;;14.20;64.54;98784.66;2192929;40;19945;-81
2021/05/16 09:08:05;;;;;;;;;;;;;;;14.45;63.46;98777.94;2204019;40;19950;-80
2021/05/16 09:09:38;;;;;;;;;;;;;;;14.58;62.80;98788.75;2203037;40;19938;-79
2021/05/16 09:11:11;;;;;;;;;;;;;;;14.62;62.28;98784.63;2208068;40;20336;-80
2021/05/16 09:12:43;;;;;;;;;;;;;;;14.86;62.02;98787.00;2204717;40;19965;-80
2021/05/16 09:14:38;;;;;;;;;;;;;;;15.16;61.31;98775.88;2204656;40;20336;-80
2021/05/16 09:22:01;;;;;;;;;;;;;;;15.37;59.26;98786.44;2216520;40;20034;-81
2021/05/16 09:23:34;;;;;;;;;;;;;;;15.60;57.72;98777.94;2201540;40;25710;-81
2021/05/16 09:25:16;;;;;;;;;;;;;;;15.62;57.59;98775.03;2223237;40;19968;-81
2021/05/16 09:26:50;;;;;;;;;;;;;;;15.62;57.50;98774.22;2188037;40;19938;-82
2021/05/16 09:32:01;;;;;;;;;;;;;;;15.95;56.61;98767.97;2221215;40;19990;-81
2021/05/16 09:33:31;;;;;;;;;;;;;;;16.00;55.54;98765.47;2211496;40;19941;-84
2021/05/16 09:35:06;;;;;;;;;;;;;;;15.96;55.09;98766.94;2215429;40;19941;-82
2021/05/16 09:36:38;;;;;;;;;;;;;;;15.96;55.08;98770.47;2190092;40;19945;-84
2021/05/16 09:38:11;;;;;;;;;;;;;;;16.13;54.53;98768.13;2211073;40;19945;-85
2021/05/16 09:39:44;;;;;;;;;;;;;;;16.33;53.18;98776.16;2212595;40;19945;-82
2021/05/16 09:41:17;;;;;;;;;;;;;;;16.55;51.56;98767.75;2212716;40;20039;-83
2021/05/16 09:43:04;;;;;;;;;;;;;;;16.63;51.42;98764.78;2215985;40;19942;-82
2021/05/16 09:44:40;;;;;;;;;;;;;;;16.79;50.83;98757.25;2213727;40;19985;-83
2021/05/16 09:46:11;;;;;;;;;;;;;;;16.93;50.30;98750.75;2215920;40;19953;-82
2021/05/16 09:47:42;;;;;;;;;;;;;;;16.96;50.01;98753.03;2213260;40;20227;-81
2021/05/16 09:49:24;;;;;;;;;;;;;;;16.89;50.93;98746.81;2214649;40;19944;-80
2021/05/16 09:51:12;;;;;;;;;;;;;;;17.14;50.38;98749.56;2215530;40;19936;-79
2021/05/16 09:52:56;;;;;;;;;;;;;;;16.95;49.91;98748.66;2221478;40;19945;-79
2021/05/16 09:54:29;;;;;;;;;;;;;;;17.08;49.29;98746.94;2223355;40;20744;-77
2021/05/16 09:56:21;;;;;;;;;;;;;;;17.11;49.85;98749.16;2217878;40;20004;-78
2021/05/16 09:57:52;;;;;;;;;;;;;;;17.49;48.97;98742.84;2216619;40;19933;-78
2021/05/16 09:59:24;;;;;;;;;;;;;;;17.47;48.15;98736.84;2220592;40;19929;-80
2021/05/16 10:00:54;;;;;;;;;;;;;;;17.50;48.16;98733.69;2222648;40;19941;-79
2021/05/16 10:02:27;;;;;;;;;;;;;;;17.44;47.99;98734.59;2222694;40;19936;-79
2021/05/16 10:03:59;;;;;;;;;;;;;;;17.64;48.11;98731.69;2221238;40;19937;-84
2021/05/16 10:05:33;;;;;;;;;;;;;;;17.74;47.47;98739.28;2220983;40;20583;-81
2021/05/16 10:07:11;;;;;;;;;;;;;;;17.71;47.12;98720.81;2218525;40;19940;-79
2021/05/16 10:08:51;;;;;;;;;;;;;;;17.64;47.44;98725.47;2213369;40;19937;-82
2021/05/16 10:10:33;;;;;;;;;;;;;;;17.96;46.59;98723.50;2214800;40;19941;-83
2021/05/16 10:12:10;;;;;;;;;;;;;;;18.07;46.50;98720.03;2201838;40;19974;-85
2021/05/16 10:13:47;;;;;;;;;;;;;;;18.38;45.80;98709.25;2212578;40;19956;-84
2021/05/16 10:15:20;;;;;;;;;;;;;;;18.65;45.36;98703.47;2209416;40;19951;-86
2021/05/16 10:16:52;;;;;;;;;;;;;;;18.60;44.53;98700.63;2216091;40;20580;-83
2021/05/16 10:18:25;;;;;;;;;;;;;;;18.79;44.25;98702.22;2204672;40;20350;-83
2021/05/16 10:19:56;;;;;;;;;;;;;;;19.07;43.88;98689.94;2214213;40;19948;-85
2021/05/16 10:21:28;;;;;;;;;;;;;;;18.97;44.19;98692.41;2211330;40;19962;-82
2021/05/16 10:23:00;;;;;;;;;;;;;;;18.86;43.83;98684.00;2212709;40;19941;-83
2021/05/16 10:24:41;;;;;;;;;;;;;;;18.43;44.74;98695.03;2185879;40;19949;-84
2021/05/16 10:26:17;;;;;;;;;;;;;;;18.26;45.10;98692.13;2205219;40;19948;-84
2021/05/16 10:27:48;;;;;;;;;;;;;;;17.91;45.32;98697.09;2212258;40;20337;-85